Aeroporto :
LOGIN :

Iscrizione | Disclaimer

   EN    FR    IT 

 










Sommario :    VFR   VFR Marginale   IFR   IFR Intensivo   IFR Molto Intensivo
Visibilità : 
Base nubi : 
>= 8 km
>= 3000ft
5 / 8 km
1000 / 3000 ft
1500m / 5 km
500 / 1000 ft
800 / 1500m
200 / 500 ft
< 800m
< 200 ft
Simboli :   Temporali  Nebbia  Neve Forte  Precipitazioni Forti  Vento > 20 kt
SIGMETs :   Varie  Temporali  Ghiacco  Turbolenza  Onda orograficha  Ceneri Vulcaniche






- Altitudine del aeroporto : 396 ft


LFOZ - Orléans St Denis

ULTIMO METAR :
  • 142130Z AUTO 06004KT 9999 BKN035 OVC042 05/04 Q0998

METARs OBSOLETI :
  • 142100Z AUTO 06004KT 9999 BKN024 OVC045 05/04 Q0999
  • 142030Z AUTO 05006KT 9999 FEW018 OVC045 05/04 Q0998
  • 142000Z AUTO 06005KT 9999 BKN026 OVC044 05/04 Q0999
  • 141930Z AUTO 05005KT 9999 OVC023 05/04 Q0999
  • 141900Z AUTO 09005KT 9999 BKN019 OVC190 05/04 Q0999

TAF N/A



MetMap, La meteo Aeronautica in un colpo d'occhio ! - Copyright ORBIFLY Dicembre 2007 - Disclaimer

ORBIFLY MET'MAP TEAM :

Programmazione e sviluppo : Alexandra Zaïnal
Concezione e sviluppo : Baudouin d'Aumeries
Co-Programmazione e sviluppo : Marc-Olivier Méhu
Supporto tecnico e logistico : Manuel Goepfert
Aiuto per la traduzione : Arnaldo La Scala

Contatto : metmap@orbifly.com




FONTI E CREDITI :

   NOAA